Time;durP1;ratioP1;P1;durP2;ratioP2;P2;SDS_P1;SDS_P2;PMS_P1;PMS_P2;Temp;Humidity;BMP_temperature;BMP_pressure;BME280_temperature;BME280_humidity;BME280_pressure;Samples;Min_cycle;Max_cycle;Signal;HPM_P1;HPM_P2
2023/04/01 00:01:54;;;;;;;;;;;;;;;10.17;100.00;98722.88;5087131;28;19928;-78
2023/04/01 00:04:20;;;;;;;;;;;;;;;10.15;100.00;98719.53;5083723;28;19956;-77
2023/04/01 00:06:47;;;;;;;;;;;;;;;10.18;100.00;98703.44;5084842;28;19924;-77
2023/04/01 00:09:12;;;;;;;;;;;;;;;10.22;100.00;98703.94;5083040;28;20287;-77
2023/04/01 00:11:38;;;;;;;;;;;;;;;10.20;100.00;98704.09;5087637;28;19999;-76
2023/04/01 00:14:04;;;;;;;;;;;;;;;10.13;100.00;98695.13;5067270;28;19924;-77
2023/04/01 00:16:29;;;;;;;;;;;;;;;10.21;100.00;98684.66;5086303;28;20002;-76
2023/04/01 00:18:55;;;;;;;;;;;;;;;10.17;100.00;98678.06;5083159;28;19924;-77
2023/04/01 00:21:22;;;;;;;;;;;;;;;10.15;100.00;98685.25;5086867;28;19920;-73
2023/04/01 00:23:47;;;;;;;;;;;;;;;10.31;100.00;98681.06;5080592;28;20326;-78
2023/04/01 00:26:14;;;;;;;;;;;;;;;10.36;100.00;98682.22;5087028;28;20367;-78
2023/04/01 00:28:39;;;;;;;;;;;;;;;10.50;100.00;98680.75;5084676;28;19927;-77
2023/04/01 00:31:06;;;;;;;;;;;;;;;10.49;100.00;98676.44;5065518;28;19924;-77
2023/04/01 00:33:32;;;;;;;;;;;;;;;10.40;100.00;98695.91;5082961;28;19924;-78
2023/04/01 00:36:05;;;;;;;;;;;;;;;10.34;100.00;98692.09;5066374;28;19924;-79
2023/04/01 00:38:30;;;;;;;;;;;;;;;10.34;100.00;98686.81;5082682;28;20011;-78
2023/04/01 00:40:57;;;;;;;;;;;;;;;10.31;100.00;98678.44;5087423;28;20023;-78
2023/04/01 00:43:23;;;;;;;;;;;;;;;10.25;100.00;98677.22;5067691;28;19920;-79
2023/04/01 00:45:49;;;;;;;;;;;;;;;10.15;100.00;98674.72;5072610;28;19920;-78
2023/04/01 00:48:25;;;;;;;;;;;;;;;10.09;100.00;98685.91;5069696;28;19920;-79
2023/04/01 00:50:56;;;;;;;;;;;;;;;9.96;100.00;98682.06;5087421;28;19966;-78
2023/04/01 00:53:22;;;;;;;;;;;;;;;9.79;100.00;98686.47;5065556;28;19956;-78
2023/04/01 00:55:51;;;;;;;;;;;;;;;9.87;100.00;98678.59;5069577;28;19967;-78
2023/04/01 00:58:20;;;;;;;;;;;;;;;9.91;100.00;98672.00;5066876;28;20007;-76
2023/04/01 01:00:47;;;;;;;;;;;;;;;9.95;100.00;98665.47;5068755;28;20023;-77
2023/04/01 01:03:13;;;;;;;;;;;;;;;9.94;100.00;98663.81;5083368;28;20006;-79
2023/04/01 01:05:49;;;;;;;;;;;;;;;9.92;100.00;98671.03;5066839;28;20007;-78
2023/04/01 01:08:25;;;;;;;;;;;;;;;9.87;100.00;98665.41;5093620;28;19955;-79
2023/04/01 01:10:51;;;;;;;;;;;;;;;9.96;100.00;98656.53;5082565;28;20384;-79
2023/04/01 01:13:19;;;;;;;;;;;;;;;9.81;100.00;98663.41;5051431;28;19966;-78
2023/04/01 01:15:51;;;;;;;;;;;;;;;9.68;100.00;98668.31;5082678;28;19921;-79
2023/04/01 01:18:23;;;;;;;;;;;;;;;9.67;100.00;98667.47;5084629;28;19921;-77
2023/04/01 01:21:01;;;;;;;;;;;;;;;9.48;100.00;98666.91;5084148;28;19966;-79
2023/04/01 01:23:46;;;;;;;;;;;;;;;9.45;100.00;98674.13;5083256;28;20776;-79
2023/04/01 01:26:29;;;;;;;;;;;;;;;9.55;100.00;98665.28;5086599;28;19935;-79
2023/04/01 01:28:58;;;;;;;;;;;;;;;9.60;100.00;98660.38;5068410;28;19939;-79
2023/04/01 01:31:29;;;;;;;;;;;;;;;9.63;100.00;98652.16;5066998;28;19920;-79
2023/04/01 01:34:09;;;;;;;;;;;;;;;9.59;100.00;98648.19;5065867;28;19921;-78
2023/04/01 01:36:37;;;;;;;;;;;;;;;9.60;100.00;98641.94;5066521;28;19926;-78
2023/04/01 01:39:07;;;;;;;;;;;;;;;9.58;100.00;98636.00;5064083;28;20006;-78
2023/04/01 01:41:34;;;;;;;;;;;;;;;9.56;100.00;98643.22;5066351;28;19969;-78
2023/04/01 01:44:03;;;;;;;;;;;;;;;9.55;100.00;98641.56;5066238;28;19974;-77
2023/04/01 01:46:30;;;;;;;;;;;;;;;9.40;100.00;98639.56;5082056;28;19927;-78
2023/04/01 01:48:57;;;;;;;;;;;;;;;9.42;100.00;98640.19;5086266;28;19924;-78
2023/04/01 01:51:23;;;;;;;;;;;;;;;9.36;100.00;98624.25;5082288;28;19955;-77
2023/04/01 01:53:48;;;;;;;;;;;;;;;9.26;100.00;98619.06;5085727;28;19978;-78
2023/04/01 01:56:18;;;;;;;;;;;;;;;9.21;100.00;98610.81;5068129;28;19928;-77
2023/04/01 01:58:45;;;;;;;;;;;;;;;9.21;100.00;98602.94;5061439;28;20034;-80
2023/04/01 02:01:16;;;;;;;;;;;;;;;9.20;100.00;98601.28;5063857;28;19925;-75
2023/04/01 02:03:42;;;;;;;;;;;;;;;9.12;100.00;98603.88;5089288;28;20339;-78
2023/04/01 02:06:10;;;;;;;;;;;;;;;9.11;100.00;98612.75;5068564;28;20015;-78
2023/04/01 02:08:44;;;;;;;;;;;;;;;9.09;100.00;98609.44;5069813;28;19947;-78
2023/04/01 02:11:12;;;;;;;;;;;;;;;9.01;100.00;98619.94;5094895;28;19919;-78
2023/04/01 02:13:42;;;;;;;;;;;;;;;8.81;100.00;98600.06;5067602;28;19967;-77
2023/04/01 02:16:34;;;;;;;;;;;;;;;8.69;100.00;98610.03;5081212;28;19974;-78
2023/04/01 02:19:02;;;;;;;;;;;;;;;8.51;100.00;98615.31;5059284;28;19948;-77
2023/04/01 02:21:30;;;;;;;;;;;;;;;8.45;100.00;98620.34;5071322;28;19924;-78
2023/04/01 02:23:57;;;;;;;;;;;;;;;8.52;100.00;98616.97;5062722;28;20401;-78
2023/04/01 02:26:25;;;;;;;;;;;;;;;8.49;100.00;98627.78;5084379;28;19924;-78
2023/04/01 02:28:52;;;;;;;;;;;;;;;8.26;100.00;98631.81;5063336;28;20410;-78
2023/04/01 02:31:18;;;;;;;;;;;;;;;8.31;100.00;98637.47;5084036;28;20279;-77
2023/04/01 02:33:44;;;;;;;;;;;;;;;8.32;100.00;98635.66;5060093;28;19921;-77
2023/04/01 02:36:13;;;;;;;;;;;;;;;8.42;100.00;98637.28;5065362;28;19920;-79
2023/04/01 02:38:38;;;;;;;;;;;;;;;8.46;100.00;98649.13;5064029;28;19928;-79
2023/04/01 02:41:05;;;;;;;;;;;;;;;8.52;100.00;98642.44;5083315;28;19925;-78
2023/04/01 02:43:30;;;;;;;;;;;;;;;8.51;100.00;98641.59;5055869;28;19973;-79
2023/04/01 02:45:56;;;;;;;;;;;;;;;8.42;100.00;98637.28;5068401;28;19924;-78
2023/04/01 02:48:22;;;;;;;;;;;;;;;8.36;100.00;98643.13;5085794;28;20269;-79
2023/04/01 02:50:48;;;;;;;;;;;;;;;8.26;100.00;98642.31;5074000;28;20019;-78
2023/04/01 02:53:14;;;;;;;;;;;;;;;8.31;100.00;98637.47;5085964;28;19927;-77
2023/04/01 02:55:39;;;;;;;;;;;;;;;8.35;100.00;98641.47;5093118;28;20006;-78
2023/04/01 02:58:05;;;;;;;;;;;;;;;8.36;100.00;98651.00;5086161;28;20344;-78
2023/04/01 03:00:31;;;;;;;;;;;;;;;8.35;100.00;98651.97;5071681;28;19920;-77
2023/04/01 03:02:56;;;;;;;;;;;;;;;8.43;100.00;98659.09;5066058;28;19920;-78
2023/04/01 03:05:22;;;;;;;;;;;;;;;8.46;100.00;98662.28;5088546;28;19935;-79
2023/04/01 03:07:47;;;;;;;;;;;;;;;8.48;100.00;98667.38;5068394;28;19920;-77
2023/04/01 03:10:13;;;;;;;;;;;;;;;8.43;100.00;98675.69;5089723;28;19920;-76
2023/04/01 03:12:38;;;;;;;;;;;;;;;8.47;100.00;98665.72;5086096;28;19928;-76
2023/04/01 03:15:04;;;;;;;;;;;;;;;8.54;100.00;98664.94;5071136;28;19927;-75
2023/04/01 03:17:29;;;;;;;;;;;;;;;8.55;100.00;98663.97;5066615;28;19924;-76
2023/04/01 03:19:54;;;;;;;;;;;;;;;8.50;100.00;98663.59;5089123;28;19984;-77
2023/04/01 03:22:20;;;;;;;;;;;;;;;8.54;100.00;98667.59;5085079;28;19928;-79
2023/04/01 03:24:49;;;;;;;;;;;;;;;8.54;100.00;98678.09;5070778;28;19931;-76
2023/04/01 03:27:15;;;;;;;;;;;;;;;8.48;100.00;98672.66;5067277;28;19932;-78
2023/04/01 03:29:41;;;;;;;;;;;;;;;8.48;100.00;98668.19;5070659;28;19920;-78
2023/04/01 03:32:07;;;;;;;;;;;;;;;8.43;100.00;98670.44;5068041;28;19920;-79
2023/04/01 03:34:32;;;;;;;;;;;;;;;8.33;100.00;98679.38;5087886;28;19927;-78
2023/04/01 03:36:58;;;;;;;;;;;;;;;8.22;100.00;98678.59;5063157;28;19921;-78
2023/04/01 03:39:23;;;;;;;;;;;;;;;8.16;100.00;98688.88;5070895;28;19965;-78
2023/04/01 03:41:49;;;;;;;;;;;;;;;8.19;100.00;98688.56;5067230;28;19920;-77
2023/04/01 03:44:14;;;;;;;;;;;;;;;8.25;100.00;98693.22;5067895;28;19920;-78
2023/04/01 03:46:40;;;;;;;;;;;;;;;8.12;100.00;98711.19;5066907;28;20098;-79
2023/04/01 03:49:11;;;;;;;;;;;;;;;8.04;100.00;98711.09;5088180;28;19950;-78
2023/04/01 03:51:37;;;;;;;;;;;;;;;7.86;100.00;98707.59;5064098;28;19986;-79
2023/04/01 03:54:03;;;;;;;;;;;;;;;7.72;100.00;98699.22;5087524;28;19921;-78
2023/04/01 03:56:28;;;;;;;;;;;;;;;7.65;100.00;98692.91;5084528;28;19931;-79
2023/04/01 03:58:54;;;;;;;;;;;;;;;7.69;100.00;98702.16;5071596;28;19920;-78
2023/04/01 04:01:21;;;;;;;;;;;;;;;7.74;100.00;98692.03;5069684;28;19920;-76
2023/04/01 04:03:49;;;;;;;;;;;;;;;7.81;100.00;98702.78;5071377;28;19939;-78
2023/04/01 04:06:15;;;;;;;;;;;;;;;7.85;100.00;98700.66;5068749;28;20026;-76
2023/04/01 04:08:40;;;;;;;;;;;;;;;7.73;100.00;98703.50;5087839;28;19920;-76
2023/04/01 04:11:06;;;;;;;;;;;;;;;7.60;100.00;98710.88;5085599;28;20078;-76
2023/04/01 04:13:35;;;;;;;;;;;;;;;7.44;100.00;98709.84;5072474;28;20615;-77
2023/04/01 04:16:01;;;;;;;;;;;;;;;7.35;100.00;98706.28;5064521;28;19928;-79
2023/04/01 04:18:27;;;;;;;;;;;;;;;7.35;100.00;98714.16;5084227;28;19930;-77
2023/04/01 04:20:53;;;;;;;;;;;;;;;7.36;100.00;98715.81;5083476;28;19921;-79
2023/04/01 04:23:19;;;;;;;;;;;;;;;7.46;100.00;98711.34;5071529;28;19924;-77
2023/04/01 04:25:55;;;;;;;;;;;;;;;7.48;100.00;98714.66;5049472;28;19924;-77
2023/04/01 04:28:20;;;;;;;;;;;;;;;7.53;100.00;98712.44;5068287;28;20011;-77
2023/04/01 04:30:46;;;;;;;;;;;;;;;7.47;100.00;98725.31;5062724;28;20019;-76
2023/04/01 04:33:11;;;;;;;;;;;;;;;7.59;100.00;98726.78;5065847;28;19959;-77
2023/04/01 04:35:36;;;;;;;;;;;;;;;7.56;100.00;98738.41;5085908;28;19985;-75
2023/04/01 04:38:02;;;;;;;;;;;;;;;7.64;100.00;98729.81;5064817;28;20414;-76
2023/04/01 04:40:27;;;;;;;;;;;;;;;7.59;100.00;98721.53;5067035;28;19924;-77
2023/04/01 04:42:53;;;;;;;;;;;;;;;7.67;100.00;98714.56;5086867;28;19974;-74
2023/04/01 04:45:18;;;;;;;;;;;;;;;7.76;100.00;98718.97;5062845;28;20008;-76
2023/04/01 04:47:52;;;;;;;;;;;;;;;7.78;100.00;98717.00;5069616;28;19973;-77
2023/04/01 04:50:17;;;;;;;;;;;;;;;7.83;100.00;98709.53;5086194;28;19920;-78
2023/04/01 04:52:43;;;;;;;;;;;;;;;7.91;100.00;98714.06;5064896;28;19920;-76
2023/04/01 04:55:08;;;;;;;;;;;;;;;7.95;100.00;98718.03;5068154;28;19932;-77
2023/04/01 04:57:34;;;;;;;;;;;;;;;8.02;100.00;98726.16;5072404;28;19920;-77
2023/04/01 04:59:59;;;;;;;;;;;;;;;8.01;100.00;98733.22;5083932;28;19920;-78
2023/04/01 05:02:47;;;;;;;;;;;;;;;8.07;100.00;98732.63;5068121;28;19975;-78
2023/04/01 05:05:16;;;;;;;;;;;;;;;8.07;100.00;98726.56;5084674;28;19920;-77
2023/04/01 05:07:41;;;;;;;;;;;;;;;8.02;100.00;98723.53;5060641;28;20374;-78
2023/04/01 05:10:07;;;;;;;;;;;;;;;8.06;100.00;98724.91;5085896;28;19927;-78
2023/04/01 05:12:35;;;;;;;;;;;;;;;7.97;100.00;98717.88;5066618;28;20279;-79
2023/04/01 05:15:03;;;;;;;;;;;;;;;8.03;100.00;98730.44;5065398;28;19920;-77
2023/04/01 05:17:28;;;;;;;;;;;;;;;8.08;100.00;98734.28;5064373;28;19921;-77
2023/04/01 05:19:54;;;;;;;;;;;;;;;8.10;100.00;98732.34;5087262;28;19927;-75
2023/04/01 05:22:19;;;;;;;;;;;;;;;7.85;100.00;98750.56;5067760;28;20000;-76
2023/04/01 05:24:45;;;;;;;;;;;;;;;7.67;100.00;98745.25;5050033;28;19958;-77
2023/04/01 05:27:11;;;;;;;;;;;;;;;7.55;100.00;98739.34;5068658;28;19927;-77
2023/04/01 05:29:38;;;;;;;;;;;;;;;7.37;100.00;98738.44;5062917;28;19960;-77
2023/04/01 05:32:07;;;;;;;;;;;;;;;7.36;100.00;98735.00;5040811;28;19936;-77
2023/04/01 05:34:33;;;;;;;;;;;;;;;7.36;100.00;98737.63;5075670;28;19921;-77
2023/04/01 05:36:58;;;;;;;;;;;;;;;7.37;100.00;98727.94;5041112;28;19986;-78
2023/04/01 05:39:23;;;;;;;;;;;;;;;7.45;100.00;98735.94;5036240;28;20075;-78
2023/04/01 05:41:49;;;;;;;;;;;;;;;7.40;100.00;98733.75;5040907;28;20254;-76
2023/04/01 05:44:14;;;;;;;;;;;;;;;7.46;100.00;98737.59;5045926;28;20016;-78
2023/04/01 05:46:40;;;;;;;;;;;;;;;7.52;100.00;98734.41;5042567;28;19990;-77
2023/04/01 05:49:23;;;;;;;;;;;;;;;7.69;100.00;98748.56;5042878;28;20381;-78
2023/04/01 05:51:51;;;;;;;;;;;;;;;7.80;100.00;98746.59;5042000;28;20445;-77
2023/04/01 05:54:16;;;;;;;;;;;;;;;7.90;100.00;98748.34;5036244;28;19964;-78
2023/04/01 05:56:43;;;;;;;;;;;;;;;8.04;100.00;98742.63;5046786;28;20426;-77
2023/04/01 05:59:10;;;;;;;;;;;;;;;8.12;100.00;98746.19;5043300;28;20011;-77
2023/04/01 06:01:35;;;;;;;;;;;;;;;8.15;100.00;98755.56;5043375;28;19921;-77
2023/04/01 06:04:00;;;;;;;;;;;;;;;8.21;100.00;98754.97;5044605;28;20280;-78
2023/04/01 06:06:27;;;;;;;;;;;;;;;8.21;100.00;98744.44;5058798;28;19928;-77
2023/04/01 06:09:01;;;;;;;;;;;;;;;8.32;100.00;98739.00;5041503;28;19921;-78
2023/04/01 06:11:28;;;;;;;;;;;;;;;8.43;100.00;98746.69;5072704;28;20601;-77
2023/04/01 06:14:22;;;;;;;;;;;;;;;8.41;100.00;98750.44;5039973;28;19928;-78
2023/04/01 06:17:08;;;;;;;;;;;;;;;8.48;100.00;98769.94;5040155;28;19943;-77
2023/04/01 06:19:36;;;;;;;;;;;;;;;8.58;100.00;98775.94;5040019;28;19929;-79
2023/04/01 06:22:09;;;;;;;;;;;;;;;8.60;100.00;98777.44;5072083;28;19971;-78
2023/04/01 06:24:59;;;;;;;;;;;;;;;8.79;100.00;98775.63;5025832;28;19932;-78
2023/04/01 06:27:30;;;;;;;;;;;;;;;8.87;100.00;98765.19;5041310;28;19959;-76
2023/04/01 06:30:05;;;;;;;;;;;;;;;8.99;100.00;98771.88;5051171;28;19924;-75
2023/04/01 06:32:49;;;;;;;;;;;;;;;9.13;100.00;98766.06;5074639;28;19920;-77
2023/04/01 06:35:33;;;;;;;;;;;;;;;9.19;100.00;98762.00;5069036;28;19920;-76
2023/04/01 06:38:08;;;;;;;;;;;;;;;9.37;98.50;98758.34;5085642;28;19973;-77
2023/04/01 06:40:45;;;;;;;;;;;;;;;9.53;96.71;98754.19;5065600;28;19954;-76
2023/04/01 06:43:25;;;;;;;;;;;;;;;9.69;94.86;98754.25;5059164;28;20277;-78
2023/04/01 06:46:39;;;;;;;;;;;;;;;9.78;93.12;98754.13;5022112;28;19925;-78
2023/04/01 06:49:43;;;;;;;;;;;;;;;9.94;92.18;98758.69;5083742;28;19931;-78
2023/04/01 06:52:49;;;;;;;;;;;;;;;10.11;91.82;98760.41;5052815;28;19920;-77
2023/04/01 06:55:42;;;;;;;;;;;;;;;10.27;87.02;98768.38;5058911;28;20407;-77
2023/04/01 06:58:30;;;;;;;;;;;;;;;10.41;87.93;98766.97;5052166;28;20091;-78
2023/04/01 07:01:00;;;;;;;;;;;;;;;10.57;87.52;98772.25;5039370;28;20424;-77
2023/04/01 07:03:30;;;;;;;;;;;;;;;10.75;87.33;98779.22;5036841;28;19921;-78
2023/04/01 07:05:58;;;;;;;;;;;;;;;10.90;87.23;98773.13;5035878;28;19924;-75
2023/04/01 07:08:26;;;;;;;;;;;;;;;11.05;87.70;98771.50;5041121;28;20341;-76
2023/04/01 07:10:57;;;;;;;;;;;;;;;11.13;86.69;98772.50;5054626;28;20398;-79
2023/04/01 07:13:45;;;;;;;;;;;;;;;11.24;86.47;98775.63;5058724;28;19973;-81
2023/04/01 07:16:26;;;;;;;;;;;;;;;11.35;85.43;98771.81;5039320;28;20006;-86
2023/04/01 07:18:52;;;;;;;;;;;;;;;11.45;84.89;98770.66;5037860;28;20007;-80
2023/04/01 07:21:35;;;;;;;;;;;;;;;11.56;85.16;98769.47;5039513;28;20424;-80
2023/04/01 07:24:05;;;;;;;;;;;;;;;11.69;85.22;98767.13;5065959;28;19931;-82
2023/04/01 07:26:41;;;;;;;;;;;;;;;11.77;84.46;98767.16;5067070;28;19983;-81
2023/04/01 07:29:13;;;;;;;;;;;;;;;11.83;82.18;98758.56;5062846;28;20011;-81
2023/04/01 07:32:11;;;;;;;;;;;;;;;11.88;80.62;98768.63;5068792;28;20399;-81
2023/04/01 07:34:53;;;;;;;;;;;;;;;12.00;79.57;98766.41;5087550;28;20273;-81
2023/04/01 07:37:41;;;;;;;;;;;;;;;12.16;79.24;98766.34;5095480;28;19920;-80
2023/04/01 07:40:14;;;;;;;;;;;;;;;12.25;77.36;98775.91;5048290;28;19928;-79
2023/04/01 07:42:59;;;;;;;;;;;;;;;12.36;77.66;98772.88;5069594;28;20265;-81
2023/04/01 07:45:36;;;;;;;;;;;;;;;12.50;77.69;98785.38;5067979;28;20022;-78
2023/04/01 07:48:12;;;;;;;;;;;;;;;12.66;76.71;98765.94;5066004;28;19927;-78
2023/04/01 07:50:42;;;;;;;;;;;;;;;12.82;73.31;98780.88;5068058;28;19923;-81
2023/04/01 07:53:28;;;;;;;;;;;;;;;12.97;72.62;98779.94;5066648;28;19965;-79
2023/04/01 07:56:15;;;;;;;;;;;;;;;13.15;67.46;98777.03;5072143;28;19950;-80
2023/04/01 07:58:45;;;;;;;;;;;;;;;13.35;64.38;98774.72;5068189;28;19924;-79
2023/04/01 08:01:21;;;;;;;;;;;;;;;13.48;63.82;98781.06;5066924;28;19920;-77
2023/04/01 08:04:05;;;;;;;;;;;;;;;13.64;63.44;98773.94;5085410;28;19930;-79
2023/04/01 08:06:41;;;;;;;;;;;;;;;13.78;62.66;98778.44;5083412;28;20391;-81
2023/04/01 08:09:25;;;;;;;;;;;;;;;13.91;61.43;98781.25;5066130;28;19927;-81
2023/04/01 08:12:19;;;;;;;;;;;;;;;14.03;60.92;98785.09;5083293;28;20004;-79
2023/04/01 08:15:22;;;;;;;;;;;;;;;14.17;59.85;98786.94;5064008;28;20329;-81
2023/04/01 08:18:20;;;;;;;;;;;;;;;14.29;57.83;98788.13;5063181;28;19916;-79
2023/04/01 08:21:06;;;;;;;;;;;;;;;14.41;57.24;98782.38;5083048;28;19946;-80
2023/04/01 08:23:36;;;;;;;;;;;;;;;14.53;56.26;98775.56;5067060;28;19920;-79
2023/04/01 08:26:01;;;;;;;;;;;;;;;14.57;54.24;98779.50;5079975;28;19920;-78
2023/04/01 08:28:36;;;;;;;;;;;;;;;14.61;53.12;98788.72;5068127;28;19945;-78
2023/04/01 08:31:26;;;;;;;;;;;;;;;14.69;53.70;98772.69;5065538;28;19920;-77
2023/04/01 08:33:54;;;;;;;;;;;;;;;14.75;52.60;98774.59;5077586;28;20414;-78
2023/04/01 08:36:30;;;;;;;;;;;;;;;14.75;51.71;98774.59;5083639;28;20015;-80
2023/04/01 08:39:20;;;;;;;;;;;;;;;14.81;51.91;98763.22;5068600;28;21793;-80
2023/04/01 08:41:49;;;;;;;;;;;;;;;14.91;51.37;98763.72;5066927;28;20015;-81
2023/04/01 08:44:41;;;;;;;;;;;;;;;14.98;51.54;98769.91;5086824;28;19973;-82
2023/04/01 08:47:16;;;;;;;;;;;;;;;15.08;51.66;98764.28;5068067;28;19926;-79
2023/04/01 08:49:42;;;;;;;;;;;;;;;15.19;51.38;98765.63;5068831;28;19974;-82
2023/04/01 08:52:16;;;;;;;;;;;;;;;15.22;50.83;98765.22;5067205;28;19924;-79
2023/04/01 08:54:55;;;;;;;;;;;;;;;15.27;50.29;98762.81;5069945;28;20400;-80
2023/04/01 08:57:35;;;;;;;;;;;;;;;15.37;51.06;98763.31;5098591;28;19928;-81
2023/04/01 09:00:47;;;;;;;;;;;;;;;15.47;51.54;98766.47;5086813;28;19967;-82
2023/04/01 09:03:41;;;;;;;;;;;;;;;15.57;51.58;98764.31;5083391;28;19924;-80
2023/04/01 09:06:25;;;;;;;;;;;;;;;15.65;50.53;98769.50;5072491;28;20011;-78
2023/04/01 09:09:17;;;;;;;;;;;;;;;15.70;49.42;98769.72;5063490;28;20364;-78
2023/04/01 09:11:42;;;;;;;;;;;;;;;15.78;48.69;98764.28;5088457;28;19920;-80
2023/04/01 09:14:22;;;;;;;;;;;;;;;15.82;47.56;98765.50;5085636;28;19958;-78
2023/04/01 09:16:54;;;;;;;;;;;;;;;15.88;48.13;98761.25;5081261;28;19920;-78
2023/04/01 09:19:39;;;;;;;;;;;;;;;15.94;48.12;98766.63;5068319;28;19932;-77
2023/04/01 09:22:04;;;;;;;;;;;;;;;16.02;44.98;98767.47;5082165;28;20008;-77
2023/04/01 09:24:49;;;;;;;;;;;;;;;16.07;43.92;98765.03;5063416;28;19924;-78
2023/04/01 09:27:24;;;;;;;;;;;;;;;16.13;44.61;98764.25;5062656;28;19928;-76
2023/04/01 09:30:11;;;;;;;;;;;;;;;16.19;44.96;98758.16;5061214;28;20070;-77
2023/04/01 09:32:55;;;;;;;;;;;;;;;16.23;43.34;98760.22;5059600;28;19963;-78
2023/04/01 09:35:31;;;;;;;;;;;;;;;16.23;43.17;98751.41;5062322;28;19924;-77
2023/04/01 09:38:11;;;;;;;;;;;;;;;16.28;43.11;98756.94;5058115;28;20015;-76
2023/04/01 09:40:46;;;;;;;;;;;;;;;16.35;42.52;98757.81;5062816;28;19924;-78
2023/04/01 09:43:35;;;;;;;;;;;;;;;16.49;42.03;98762.16;5074980;28;19963;-76
2023/04/01 09:46:04;;;;;;;;;;;;;;;16.47;41.98;98760.72;5060961;28;20011;-77
2023/04/01 09:48:48;;;;;;;;;;;;;;;16.51;41.16;98759.28;5063444;28;20015;-77
2023/04/01 09:51:17;;;;;;;;;;;;;;;16.56;39.78;98755.00;5067170;28;19974;-77
2023/04/01 09:53:42;;;;;;;;;;;;;;;16.61;40.58;98746.47;5078898;28;19924;-77
2023/04/01 09:56:12;;;;;;;;;;;;;;;16.66;40.45;98750.16;5062256;28;19981;-76
2023/04/01 09:58:58;;;;;;;;;;;;;;;16.75;39.73;98748.94;5060063;28;19957;-79
2023/04/01 10:01:54;;;;;;;;;;;;;;;16.77;39.89;98746.91;5083919;28;20035;-79
2023/04/01 10:04:24;;;;;;;;;;;;;;;16.82;40.28;98742.81;5066899;28;19920;-80
2023/04/01 10:07:08;;;;;;;;;;;;;;;16.83;38.73;98745.28;5095288;28;19928;-76
2023/04/01 10:09:53;;;;;;;;;;;;;;;16.87;38.29;98735.03;5087725;28;19928;-81
2023/04/01 10:12:31;;;;;;;;;;;;;;;16.91;37.92;98730.91;5068687;28;19924;-80
2023/04/01 10:15:11;;;;;;;;;;;;;;;16.96;38.70;98723.16;5065866;28;20355;-78
2023/04/01 10:17:52;;;;;;;;;;;;;;;17.02;37.17;98723.13;5062654;28;19965;-81
2023/04/01 10:20:36;;;;;;;;;;;;;;;17.08;35.23;98710.88;5061171;28;19955;-82
2023/04/01 10:23:20;;;;;;;;;;;;;;;17.13;35.44;98714.56;5069222;28;19923;-81
2023/04/01 10:25:55;;;;;;;;;;;;;;;17.30;35.54;98714.97;5060562;28;20291;-80
2023/04/01 10:28:30;;;;;;;;;;;;;;;17.39;34.52;98711.03;5063231;28;19928;-79
2023/04/01 10:31:28;;;;;;;;;;;;;;;17.46;35.29;98709.19;5095292;22;19928;-75
2023/04/01 10:34:00;;;;;;;;;;;;;;;17.47;35.24;98707.34;5082839;28;19932;-78
2023/04/01 10:36:44;;;;;;;;;;;;;;;17.48;34.54;98701.81;5081245;28;20373;-78
2023/04/01 10:39:29;;;;;;;;;;;;;;;17.52;34.34;98697.69;5077690;28;19947;-75
2023/04/01 10:42:02;;;;;;;;;;;;;;;17.59;34.26;98690.50;5079804;28;20426;-75
2023/04/01 10:44:52;;;;;;;;;;;;;;;17.59;33.70;98685.19;5097591;28;19920;-78
2023/04/01 10:47:50;;;;;;;;;;;;;;;17.61;34.52;98692.19;4380560;28;10000715;-78
2023/04/01 10:50:25;;;;;;;;;;;;;;;17.72;35.34;98691.53;5065147;28;20364;-79
2023/04/01 10:52:53;;;;;;;;;;;;;;;17.77;35.31;98686.38;5079275;28;19920;-77
2023/04/01 10:56:00;;;;;;;;;;;;;;;17.77;34.05;98689.06;5024090;28;20028;-78
2023/04/01 10:59:04;;;;;;;;;;;;;;;17.72;32.95;98681.69;5050593;28;20014;-76
2023/04/01 11:01:47;;;;;;;;;;;;;;;17.71;34.34;98674.72;5095212;28;19927;-78
2023/04/01 11:04:44;;;;;;;;;;;;;;;17.74;33.78;98676.13;5084152;28;19974;-77
2023/04/01 11:07:54;;;;;;;;;;;;;;;17.76;33.52;98682.06;5102568;28;19980;-77
2023/04/01 11:10:36;;;;;;;;;;;;;;;17.87;31.02;98681.44;4744915;28;9999750;-79
2023/04/01 11:13:14;;;;;;;;;;;;;;;17.93;30.32;98667.25;5089834;28;19934;-77
2023/04/01 11:15:54;;;;;;;;;;;;;;;17.96;29.51;98666.84;5084848;28;20076;-75
2023/04/01 11:18:26;;;;;;;;;;;;;;;17.99;30.47;98666.41;5084674;28;20399;-75
2023/04/01 11:20:55;;;;;;;;;;;;;;;18.04;30.88;98657.75;5104820;28;19920;-76
2023/04/01 11:23:42;;;;;;;;;;;;;;;18.12;31.97;98655.66;5086172;28;19920;-76
2023/04/01 11:26:29;;;;;;;;;;;;;;;18.26;31.39;98659.09;5091402;28;19927;-77
2023/04/01 11:29:24;;;;;;;;;;;;;;;18.49;31.16;98658.56;5084297;28;19963;-77
2023/04/01 11:32:04;;;;;;;;;;;;;;;18.55;31.21;98652.38;5087242;28;20003;-76
2023/04/01 11:34:50;;;;;;;;;;;;;;;18.68;30.82;98649.59;5103023;28;20309;-75
2023/04/01 11:37:24;;;;;;;;;;;;;;;18.74;29.50;98651.41;5099566;28;19920;-76
2023/04/01 11:40:23;;;;;;;;;;;;;;;18.86;28.69;98648.84;5069880;28;19937;-75
2023/04/01 11:43:10;;;;;;;;;;;;;;;19.05;26.15;98640.69;5104625;28;20441;-74
2023/04/01 11:46:10;;;;;;;;;;;;;;;19.21;22.88;98634.75;5092468;28;19919;-74
2023/04/01 11:48:45;;;;;;;;;;;;;;;19.30;22.51;98626.47;5103574;28;20388;-74
2023/04/01 11:51:26;;;;;;;;;;;;;;;19.48;21.46;98630.00;5104145;28;20363;-77
2023/04/01 11:54:01;;;;;;;;;;;;;;;19.58;21.72;98624.13;5100903;28;19989;-75
2023/04/01 11:56:26;;;;;;;;;;;;;;;19.68;22.28;98616.38;5100269;28;19978;-77
2023/04/01 11:58:55;;;;;;;;;;;;;;;19.78;22.73;98608.66;5083246;28;19924;-74
2023/04/01 12:01:30;;;;;;;;;;;;;;;19.89;22.80;98605.22;5085432;28;20031;-75
2023/04/01 12:04:14;;;;;;;;;;;;;;;20.02;22.27;98599.72;4749982;28;9999823;-76
2023/04/01 12:06:46;;;;;;;;;;;;;;;20.14;21.96;98602.44;5102556;28;19928;-75
2023/04/01 12:09:17;;;;;;;;;;;;;;;19.96;21.07;98600.63;5106043;28;20383;-75
2023/04/01 12:11:42;;;;;;;;;;;;;;;20.18;21.59;98597.44;5085919;28;19924;-76
2023/04/01 12:14:16;;;;;;;;;;;;;;;20.24;21.26;98599.19;5103551;28;19976;-76
2023/04/01 12:16:46;;;;;;;;;;;;;;;20.26;21.25;98586.41;5100174;28;20352;-75
2023/04/01 12:19:17;;;;;;;;;;;;;;;20.42;21.26;98583.09;5094674;28;19934;-76
2023/04/01 12:21:43;;;;;;;;;;;;;;;20.41;21.23;98573.41;5100532;28;20269;-76
2023/04/01 12:24:14;;;;;;;;;;;;;;;20.47;20.94;98566.31;5103113;28;19981;-74
2023/04/01 12:26:58;;;;;;;;;;;;;;;20.48;21.29;98571.47;5102105;28;20040;-74
2023/04/01 12:29:24;;;;;;;;;;;;;;;20.66;21.99;98571.38;5099245;28;19927;-75
2023/04/01 12:31:59;;;;;;;;;;;;;;;20.85;21.83;98567.53;5005210;28;1953226;-75
2023/04/01 12:34:58;;;;;;;;;;;;;;;21.05;21.40;98571.75;5064925;28;20288;-77
2023/04/01 12:37:29;;;;;;;;;;;;;;;21.25;20.43;98566.88;5050050;28;20287;-74
2023/04/01 12:39:57;;;;;;;;;;;;;;;21.21;20.36;98565.69;5067994;28;19924;-74
2023/04/01 12:42:41;;;;;;;;;;;;;;;21.36;19.92;98560.66;4364768;28;10000693;-77
2023/04/01 12:45:25;;;;;;;;;;;;;;;21.52;20.19;98551.88;5064391;28;20288;-76
2023/04/01 12:48:01;;;;;;;;;;;;;;;21.39;19.86;98546.75;5066868;28;19993;-77
2023/04/01 12:50:45;;;;;;;;;;;;;;;21.69;20.21;98554.63;5069058;28;19931;-79
2023/04/01 12:53:28;;;;;;;;;;;;;;;21.69;20.05;98545.75;5063072;28;20285;-75
2023/04/01 12:55:54;;;;;;;;;;;;;;;21.73;20.01;98544.25;5065950;28;20451;-77
2023/04/01 12:58:20;;;;;;;;;;;;;;;21.69;20.26;98540.38;5068964;28;19920;-76
2023/04/01 13:00:45;;;;;;;;;;;;;;;21.65;20.65;98540.88;5067810;28;19923;-75
2023/04/01 13:03:30;;;;;;;;;;;;;;;21.77;20.19;98535.47;5066931;28;19920;-76
2023/04/01 13:06:15;;;;;;;;;;;;;;;22.00;20.47;98526.50;5071564;28;19920;-74
2023/04/01 13:09:04;;;;;;;;;;;;;;;21.97;19.46;98530.47;5069319;28;19924;-74
2023/04/01 13:11:46;;;;;;;;;;;;;;;21.51;19.11;98533.31;5063141;28;20382;-76
2023/04/01 13:14:14;;;;;;;;;;;;;;;21.52;19.25;98533.09;5069932;28;20284;-77
2023/04/01 13:16:59;;;;;;;;;;;;;;;21.54;20.01;98528.31;5071010;28;20533;-76
2023/04/01 13:19:27;;;;;;;;;;;;;;;21.77;20.29;98523.91;5070743;28;20002;-77
2023/04/01 13:21:56;;;;;;;;;;;;;;;22.17;19.07;98516.63;5071171;28;20382;-75